Crosby Mariner — WDE6265 — position and weather

sailwx.info

Track history (hours):
 
Tides and Currents Weather Stations Pressure Air Temp Water Temp Dewpoint Dewpoint Depression Visibility Wind Speed Wind Dir Waves Ship Positions

Crosby Mariner

Owner: Crosby Marine Transportation LLC, Golden Meadow, LA. More information available from US FCC via Universal Licensing System and Coast Guard Vessel Documentation Center.

Last reported at 2017-Sep-25 04:39 UTC. Time now 2017-Sep-25 08:24 UTC.
Position N 29°50' W 091°60'.

Length 9 m; draft 3 m.

Type: . MMSI: 367378040.

Date/timePositionNaut miles runAvg speedWind from/ knotsBaromVisibWave heightAir tempDewpointWater temp
2017-Sep-25 04:39N 29°50' W 091°60'2 9.7
2017-Sep-25 04:26N 29°49' W 092°02'1 2.6
2017-Sep-25 04:00N 29°49' W 092°03'0 0.2
2017-Sep-25 03:30N 29°49' W 092°03'4 9.0
2017-Sep-25 03:00N 29°47' W 092°08'4 7.3
2017-Sep-25 02:30N 29°47' W 092°12'4 8.6
2017-Sep-25 02:00N 29°49' W 092°17'44 8.3
2017-Sep-24 20:42N 29°56' W 093°07'2 8.6
2017-Sep-24 20:30N 29°56' W 093°09'4 8.8
2017-Sep-24 20:00N 29°59' W 093°13'4 7.8
2017-Sep-24 19:30N 30°02' W 093°15'3 6.7
2017-Sep-24 19:00N 30°05' W 093°17'3 6.0
2017-Sep-24 18:30N 30°04' W 093°21'4 8.2
2017-Sep-24 18:00N 30°04' W 093°25'5 9.4
2017-Sep-24 17:30N 30°04' W 093°31'5 9.0
2017-Sep-24 16:59N 30°04' W 093°36'  
2017-Sep-20 08:03N 29°23' W 090°44'2 7.9
2017-Sep-20 07:50N 29°25' W 090°44'3 7.9
2017-Sep-20 07:30N 29°27' W 090°43'4 8.0
2017-Sep-20 07:00N 29°31' W 090°42'4 7.4
2017-Sep-20 06:30N 29°35' W 090°43'2 4.7
2017-Sep-20 06:00N 29°37' W 090°41'1 2.3
2017-Sep-20 05:31N 29°36' W 090°40'0 0.0
2017-Sep-20 05:00N 29°36' W 090°40'0 0.0
2017-Sep-20 04:30N 29°36' W 090°40'0 0.9
2017-Sep-20 04:00N 29°36' W 090°40'0 0.0
2017-Sep-20 03:16N 29°36' W 090°40'2 6.3
2017-Sep-20 03:00N 29°37' W 090°42'3 5.0
2017-Sep-20 02:30N 29°35' W 090°43'3 7.0
2017-Sep-20 02:00N 29°32' W 090°46'4 8.9
2017-Sep-20 01:30N 29°32' W 090°51'4 8.9
2017-Sep-20 01:00N 29°34' W 090°56'5 0.2
2017-Sep-18 23:51N 29°32' W 090°50'3 9.4
2017-Sep-18 23:30N 29°32' W 090°46'4 7.3
2017-Sep-18 23:00N 29°34' W 090°43'0 0.1
2017-Sep-18 22:31N 29°34' W 090°43'1 2.9
2017-Sep-18 22:01N 29°33' W 090°42'0 0.0
2017-Sep-18 21:30N 29°33' W 090°42'0 0.1
2017-Sep-18 21:01N 29°33' W 090°42'0 0.1
2017-Sep-18 20:30N 29°33' W 090°42'0 0.0
2017-Sep-18 20:00N 29°33' W 090°42'0 0.0
2017-Sep-18 19:30N 29°33' W 090°42'0 0.0
2017-Sep-18 19:00N 29°33' W 090°42'0 0.0
2017-Sep-18 18:31N 29°33' W 090°42'0 0.0
2017-Sep-18 18:00N 29°33' W 090°42'0 0.0
2017-Sep-18 17:30N 29°33' W 090°42'0 0.0
2017-Sep-18 17:01N 29°33' W 090°42'0 0.0
2017-Sep-18 16:31N 29°33' W 090°42'0 0.0
2017-Sep-18 16:00N 29°33' W 090°42'0 0.0
2017-Sep-18 15:31N 29°33' W 090°42'0 0.0
2017-Sep-18 15:00N 29°33' W 090°42'0 0.0
2017-Sep-18 14:30N 29°33' W 090°42'0 0.0
2017-Sep-18 14:00N 29°33' W 090°42'0 0.0
2017-Sep-18 13:30N 29°33' W 090°42'0 0.0
2017-Sep-18 13:00N 29°33' W 090°42'0 0.0
2017-Sep-18 12:30N 29°33' W 090°42'0 0.0
2017-Sep-18 12:00N 29°33' W 090°42'0 0.0
2017-Sep-18 11:29N 29°33' W 090°42'0 0.0
2017-Sep-18 11:00N 29°33' W 090°42'0 0.0
2017-Sep-18 10:30N 29°33' W 090°42'0 0.0
2017-Sep-18 10:00N 29°33' W 090°42'0 0.0
2017-Sep-18 09:30N 29°33' W 090°42'0 0.0
2017-Sep-18 09:00N 29°33' W 090°42'0 0.0
2017-Sep-18 08:30N 29°33' W 090°42'0 0.0
2017-Sep-18 08:00N 29°33' W 090°42'0 0.0
2017-Sep-18 07:30N 29°33' W 090°42'1 1.3
2017-Sep-18 07:00N 29°32' W 090°42'4 8.4
2017-Sep-18 06:30N 29°28' W 090°43'0 0.0
2017-Sep-17 18:24N 29°28' W 090°43'1 3.7
2017-Sep-17 18:00N 29°30' W 090°43'2 3.6
2017-Sep-17 17:30N 29°31' W 090°42'2 3.6
2017-Sep-17 17:00N 29°33' W 090°42'1 1.3
2017-Sep-17 16:30N 29°34' W 090°42'2 3.2
2017-Sep-17 16:00N 29°35' W 090°43'4 7.3
2017-Sep-17 15:30N 29°32' W 090°46'5 8.9
2017-Sep-17 15:00N 29°32' W 090°51'1 0.0
2017-Sep-16 08:15N 29°32' W 090°50'3 8.4
2017-Sep-16 07:55N 29°32' W 090°47'3 7.2
2017-Sep-16 07:30N 29°34' W 090°44'1 2.8
2017-Sep-16 07:00N 29°35' W 090°43'0 0.0
2017-Sep-16 06:30N 29°35' W 090°43'1 1.8
2017-Sep-16 06:00N 29°34' W 090°43'1 1.9
2017-Sep-16 05:30N 29°34' W 090°42'0 0.5
2017-Sep-16 05:00N 29°34' W 090°42'1 1.7
2017-Sep-16 04:30N 29°34' W 090°43'2 3.1
2017-Sep-16 04:00N 29°35' W 090°43'2 3.1
2017-Sep-16 03:30N 29°37' W 090°42'1 2.1
2017-Sep-16 03:00N 29°37' W 090°41'0 0.0
2017-Sep-16 02:30N 29°37' W 090°41'0 0.1
2017-Sep-16 02:00N 29°36' W 090°41'0 0.7
2017-Sep-16 01:30N 29°36' W 090°41'2 3.1
2017-Sep-16 01:00N 29°36' W 090°39'2 3.9
2017-Sep-16 00:30N 29°35' W 090°37'2 3.7
2017-Sep-16 00:00N 29°35' W 090°35'2 3.9
2017-Sep-15 23:30N 29°34' W 090°33'2 3.9
2017-Sep-15 23:00N 29°34' W 090°31'2 3.8
2017-Sep-15 22:29N 29°34' W 090°29'3 0.6
2017-Sep-15 17:47N 29°36' W 090°29'3 0.7
2017-Sep-15 12:40N 29°39' W 090°32'0 0.0
2017-Sep-15 08:28N 29°39' W 090°32'0 0.0
2017-Sep-15 07:44N 29°39' W 090°32'0 0.0
2017-Sep-15 07:28N 29°39' W 090°32'0 0.0
2017-Sep-15 06:58N 29°39' W 090°32'0 0.0
2017-Sep-15 06:23N 29°39' W 090°32'0 0.0
2017-Sep-15 06:00N 29°39' W 090°32'0 0.0
2017-Sep-15 05:26N 29°39' W 090°32'0 0.0
2017-Sep-15 04:58N 29°39' W 090°32'  
Track history (hours):
 
Tides and Currents Weather Stations Pressure Air Temp Water Temp Dewpoint Dewpoint Depression Visibility Wind Speed Wind Dir Waves Ship Positions

Crosby Mariner

Owner: Crosby Marine Transportation LLC, Golden Meadow, LA. More information available from US FCC via Universal Licensing System and Coast Guard Vessel Documentation Center.

Last reported at 2017-Sep-25 04:39 UTC. Time now 2017-Sep-25 08:24 UTC.
Position N 29°50' W 091°60'.

Length 9 m; draft 3 m.

Type: . MMSI: 367378040.

Date/timePositionNaut miles runAvg speedWind from/ knotsBaromVisibWave heightAir tempDewpointWater temp
2017-Sep-25 04:39N 29°50' W 091°60'2 9.7
2017-Sep-25 04:26N 29°49' W 092°02'1 2.6
2017-Sep-25 04:00N 29°49' W 092°03'0 0.2
2017-Sep-25 03:30N 29°49' W 092°03'4 9.0
2017-Sep-25 03:00N 29°47' W 092°08'4 7.3
2017-Sep-25 02:30N 29°47' W 092°12'4 8.6
2017-Sep-25 02:00N 29°49' W 092°17'44 8.3
2017-Sep-24 20:42N 29°56' W 093°07'2 8.6
2017-Sep-24 20:30N 29°56' W 093°09'4 8.8
2017-Sep-24 20:00N 29°59' W 093°13'4 7.8
2017-Sep-24 19:30N 30°02' W 093°15'3 6.7
2017-Sep-24 19:00N 30°05' W 093°17'3 6.0
2017-Sep-24 18:30N 30°04' W 093°21'4 8.2
2017-Sep-24 18:00N 30°04' W 093°25'5 9.4
2017-Sep-24 17:30N 30°04' W 093°31'5 9.0
2017-Sep-24 16:59N 30°04' W 093°36'  
2017-Sep-20 08:03N 29°23' W 090°44'2 7.9
2017-Sep-20 07:50N 29°25' W 090°44'3 7.9
2017-Sep-20 07:30N 29°27' W 090°43'4 8.0
2017-Sep-20 07:00N 29°31' W 090°42'4 7.4
2017-Sep-20 06:30N 29°35' W 090°43'2 4.7
2017-Sep-20 06:00N 29°37' W 090°41'1 2.3
2017-Sep-20 05:31N 29°36' W 090°40'0 0.0
2017-Sep-20 05:00N 29°36' W 090°40'0 0.0
2017-Sep-20 04:30N 29°36' W 090°40'0 0.9
2017-Sep-20 04:00N 29°36' W 090°40'0 0.0
2017-Sep-20 03:16N 29°36' W 090°40'2 6.3
2017-Sep-20 03:00N 29°37' W 090°42'3 5.0
2017-Sep-20 02:30N 29°35' W 090°43'3 7.0
2017-Sep-20 02:00N 29°32' W 090°46'4 8.9
2017-Sep-20 01:30N 29°32' W 090°51'4 8.9
2017-Sep-20 01:00N 29°34' W 090°56'5 0.2
2017-Sep-18 23:51N 29°32' W 090°50'3 9.4
2017-Sep-18 23:30N 29°32' W 090°46'4 7.3
2017-Sep-18 23:00N 29°34' W 090°43'0 0.1
2017-Sep-18 22:31N 29°34' W 090°43'1 2.9
2017-Sep-18 22:01N 29°33' W 090°42'0 0.0
2017-Sep-18 21:30N 29°33' W 090°42'0 0.1
2017-Sep-18 21:01N 29°33' W 090°42'0 0.1
2017-Sep-18 20:30N 29°33' W 090°42'0 0.0
2017-Sep-18 20:00N 29°33' W 090°42'0 0.0
2017-Sep-18 19:30N 29°33' W 090°42'0 0.0
2017-Sep-18 19:00N 29°33' W 090°42'0 0.0
2017-Sep-18 18:31N 29°33' W 090°42'0 0.0
2017-Sep-18 18:00N 29°33' W 090°42'0 0.0
2017-Sep-18 17:30N 29°33' W 090°42'0 0.0
2017-Sep-18 17:01N 29°33' W 090°42'0 0.0
2017-Sep-18 16:31N 29°33' W 090°42'0 0.0
2017-Sep-18 16:00N 29°33' W 090°42'0 0.0
2017-Sep-18 15:31N 29°33' W 090°42'0 0.0
2017-Sep-18 15:00N 29°33' W 090°42'0 0.0
2017-Sep-18 14:30N 29°33' W 090°42'0 0.0
2017-Sep-18 14:00N 29°33' W 090°42'0 0.0
2017-Sep-18 13:30N 29°33' W 090°42'0 0.0
2017-Sep-18 13:00N 29°33' W 090°42'0 0.0
2017-Sep-18 12:30N 29°33' W 090°42'0 0.0
2017-Sep-18 12:00N 29°33' W 090°42'0 0.0
2017-Sep-18 11:29N 29°33' W 090°42'0 0.0
2017-Sep-18 11:00N 29°33' W 090°42'0 0.0
2017-Sep-18 10:30N 29°33' W 090°42'0 0.0
2017-Sep-18 10:00N 29°33' W 090°42'0 0.0
2017-Sep-18 09:30N 29°33' W 090°42'0 0.0
2017-Sep-18 09:00N 29°33' W 090°42'0 0.0
2017-Sep-18 08:30N 29°33' W 090°42'0 0.0
2017-Sep-18 08:00N 29°33' W 090°42'0 0.0
2017-Sep-18 07:30N 29°33' W 090°42'1 1.3
2017-Sep-18 07:00N 29°32' W 090°42'4 8.4
2017-Sep-18 06:30N 29°28' W 090°43'0 0.0
2017-Sep-17 18:24N 29°28' W 090°43'1 3.7
2017-Sep-17 18:00N 29°30' W 090°43'2 3.6
2017-Sep-17 17:30N 29°31' W 090°42'2 3.6
2017-Sep-17 17:00N 29°33' W 090°42'1 1.3
2017-Sep-17 16:30N 29°34' W 090°42'2 3.2
2017-Sep-17 16:00N 29°35' W 090°43'4 7.3
2017-Sep-17 15:30N 29°32' W 090°46'5 8.9
2017-Sep-17 15:00N 29°32' W 090°51'1 0.0
2017-Sep-16 08:15N 29°32' W 090°50'3 8.4
2017-Sep-16 07:55N 29°32' W 090°47'3 7.2
2017-Sep-16 07:30N 29°34' W 090°44'1 2.8
2017-Sep-16 07:00N 29°35' W 090°43'0 0.0
2017-Sep-16 06:30N 29°35' W 090°43'1 1.8
2017-Sep-16 06:00N 29°34' W 090°43'1 1.9
2017-Sep-16 05:30N 29°34' W 090°42'0 0.5
2017-Sep-16 05:00N 29°34' W 090°42'1 1.7
2017-Sep-16 04:30N 29°34' W 090°43'2 3.1
2017-Sep-16 04:00N 29°35' W 090°43'2 3.1
2017-Sep-16 03:30N 29°37' W 090°42'1 2.1
2017-Sep-16 03:00N 29°37' W 090°41'0 0.0
2017-Sep-16 02:30N 29°37' W 090°41'0 0.1
2017-Sep-16 02:00N 29°36' W 090°41'0 0.7
2017-Sep-16 01:30N 29°36' W 090°41'2 3.1
2017-Sep-16 01:00N 29°36' W 090°39'2 3.9
2017-Sep-16 00:30N 29°35' W 090°37'2 3.7
2017-Sep-16 00:00N 29°35' W 090°35'2 3.9
2017-Sep-15 23:30N 29°34' W 090°33'2 3.9
2017-Sep-15 23:00N 29°34' W 090°31'2 3.8
2017-Sep-15 22:29N 29°34' W 090°29'3 0.6
2017-Sep-15 17:47N 29°36' W 090°29'3 0.7
2017-Sep-15 12:40N 29°39' W 090°32'0 0.0
2017-Sep-15 08:28N 29°39' W 090°32'0 0.0
2017-Sep-15 07:44N 29°39' W 090°32'0 0.0
2017-Sep-15 07:28N 29°39' W 090°32'0 0.0
2017-Sep-15 06:58N 29°39' W 090°32'0 0.0
2017-Sep-15 06:23N 29°39' W 090°32'0 0.0
2017-Sep-15 06:00N 29°39' W 090°32'0 0.0
2017-Sep-15 05:26N 29°39' W 090°32'0 0.0
2017-Sep-15 04:58N 29°39' W 090°32'  

Dump ship's entire track history